createdAt,value
2019-04-20T00:01:58.204Z,57.40
2019-04-20T00:04:27.177Z,57.40
2019-04-20T00:06:54.796Z,56.80
2019-04-20T00:09:26.541Z,57.30
2019-04-20T00:12:03.908Z,57.80
2019-04-20T00:14:27.677Z,58.00
2019-04-20T00:16:54.698Z,58.10
2019-04-20T00:19:33.718Z,58.00
2019-04-20T00:22:02.939Z,58.40
2019-04-20T00:24:33.622Z,59.00
2019-04-20T00:27:26.068Z,58.90
2019-04-20T00:29:51.064Z,59.10
2019-04-20T00:32:12.579Z,59.00
2019-04-20T00:34:33.802Z,58.90
2019-04-20T00:37:00.349Z,59.70
2019-04-20T00:39:29.965Z,60.30
2019-04-20T00:42:03.514Z,60.80
2019-04-20T00:44:34.210Z,61.10
2019-04-20T00:47:09.597Z,60.80
2019-04-20T00:49:45.660Z,60.90
2019-04-20T00:54:30.568Z,59.90
2019-04-20T00:57:09.340Z,59.00
2019-04-20T00:59:53.980Z,58.80
2019-04-20T01:02:19.400Z,59.10
2019-04-20T01:04:55.827Z,59.50
2019-04-20T01:07:24.339Z,59.60
2019-04-20T01:10:00.447Z,60.00
2019-04-20T01:12:31.768Z,59.40
2019-04-20T01:15:05.161Z,59.80
2019-04-20T01:17:29.799Z,60.60
2019-04-20T01:19:58.245Z,61.50
2019-04-20T01:22:28.692Z,62.00
2019-04-20T01:25:06.893Z,62.30
2019-04-20T01:27:41.175Z,63.20
2019-04-20T01:30:07.048Z,63.00
2019-04-20T01:32:34.298Z,63.50
2019-04-20T01:35:10.058Z,63.90
2019-04-20T01:37:38.418Z,64.20
2019-04-20T01:40:02.347Z,64.30
2019-04-20T01:42:28.202Z,64.10
2019-04-20T01:44:57.396Z,63.30
2019-04-20T01:47:32.084Z,63.20
2019-04-20T01:50:04.704Z,63.30
2019-04-20T01:52:41.370Z,63.20
2019-04-20T01:55:15.762Z,63.60
2019-04-20T01:57:55.014Z,63.30
2019-04-20T02:00:13.403Z,63.80
2019-04-20T02:02:49.719Z,64.10
2019-04-20T02:05:20.703Z,64.40
2019-04-20T02:07:47.549Z,64.90
2019-04-20T02:10:16.852Z,64.70
2019-04-20T02:12:50.322Z,64.80
2019-04-20T02:15:26.224Z,64.90
2019-04-20T02:17:59.572Z,65.30
2019-04-20T02:20:37.874Z,65.80
2019-04-20T02:22:59.421Z,66.50
2019-04-20T02:25:16.360Z,66.80
2019-04-20T02:27:50.516Z,66.30
2019-04-20T02:30:51.774Z,66.60
2019-04-20T02:33:29.579Z,64.40
2019-04-20T02:35:56.690Z,63.00
2019-04-20T02:38:21.777Z,63.50
2019-04-20T02:41:03.922Z,64.40
2019-04-20T02:43:25.357Z,64.60
2019-04-20T02:45:51.029Z,64.80
2019-04-20T02:48:21.692Z,64.70
2019-04-20T02:50:49.945Z,64.70
2019-04-20T02:55:55.550Z,66.00
2019-04-20T02:58:23.884Z,66.10
2019-04-20T03:00:44.762Z,66.20
2019-04-20T03:03:07.803Z,66.10
2019-04-20T03:05:33.214Z,66.30
2019-04-20T03:08:16.453Z,66.80
2019-04-20T03:10:52.435Z,67.00
2019-04-20T03:13:15.882Z,66.50
2019-04-20T03:15:44.478Z,67.20
2019-04-20T03:18:15.010Z,67.50
2019-04-20T03:20:48.901Z,68.20
2019-04-20T03:25:55.529Z,68.50
2019-04-20T03:28:26.484Z,68.00
2019-04-20T03:33:52.805Z,68.30
2019-04-20T03:36:09.336Z,68.60
2019-04-20T03:38:27.221Z,68.50
2019-04-20T03:40:48.347Z,68.60
2019-04-20T03:43:07.649Z,69.40
2019-04-20T03:45:44.597Z,69.80
2019-04-20T03:48:26.439Z,69.20
2019-04-20T03:50:58.943Z,68.40
2019-04-20T03:53:29.244Z,68.60
2019-04-20T03:56:03.718Z,68.40
2019-04-20T03:58:33.421Z,68.70
2019-04-20T04:01:22.754Z,69.90
2019-04-20T04:03:56.075Z,70.30
2019-04-20T04:06:18.723Z,70.60
2019-04-20T04:08:55.065Z,69.90
2019-04-20T04:11:27.619Z,68.30
2019-04-20T04:13:39.755Z,68.70
2019-04-20T04:16:12.149Z,69.00
2019-04-20T04:18:42.547Z,69.40
2019-04-20T04:21:13.928Z,70.00
2019-04-20T04:23:56.089Z,69.90
2019-04-20T04:26:26.432Z,70.20
2019-04-20T04:28:53.435Z,69.40
2019-04-20T04:31:27.599Z,68.60
2019-04-20T04:33:59.401Z,68.60
2019-04-20T04:36:26.019Z,69.00
2019-04-20T04:39:03.703Z,69.30
2019-04-20T04:41:26.777Z,68.90
2019-04-20T04:43:58.734Z,69.10
2019-04-20T04:46:10.390Z,69.90
2019-04-20T04:48:44.021Z,69.20
2019-04-20T04:51:20.030Z,68.90
2019-04-20T04:53:50.012Z,69.20
2019-04-20T04:56:13.197Z,69.40
2019-04-20T04:58:40.479Z,69.80
2019-04-20T05:01:14.811Z,70.40
2019-04-20T05:04:03.269Z,69.90
2019-04-20T05:06:28.108Z,70.20
2019-04-20T05:08:48.943Z,69.70
2019-04-20T05:11:13.026Z,69.40
2019-04-20T05:13:48.912Z,69.30
2019-04-20T05:16:27.606Z,69.70
2019-04-20T05:19:08.026Z,69.20
2019-04-20T05:21:39.813Z,69.30
2019-04-20T05:24:26.907Z,69.50
2019-04-20T05:27:03.064Z,69.20
2019-04-20T05:29:17.795Z,69.40
2019-04-20T05:31:49.072Z,69.40
2019-04-20T05:34:30.503Z,69.20
2019-04-20T05:37:03.697Z,68.70
2019-04-20T05:39:32.983Z,67.80
2019-04-20T05:42:07.747Z,68.00
2019-04-20T05:44:38.838Z,67.70
2019-04-20T05:47:06.984Z,67.50
2019-04-20T05:49:34.816Z,67.10
2019-04-20T05:52:15.347Z,66.80
2019-04-20T05:54:42.983Z,66.80
2019-04-20T05:57:05.600Z,66.70
2019-04-20T05:59:34.920Z,66.20
2019-04-20T06:02:14.067Z,65.20
2019-04-20T06:04:55.668Z,64.40
2019-04-20T06:07:09.362Z,64.10
2019-04-20T06:09:39.767Z,63.90
2019-04-20T06:12:19.987Z,63.40
2019-04-20T06:14:48.325Z,63.00
2019-04-20T06:17:31.463Z,62.70
2019-04-20T06:20:09.093Z,62.00
2019-04-20T06:22:41.644Z,61.50
2019-04-20T06:25:31.225Z,60.60
2019-04-20T06:27:49.821Z,60.20
2019-04-20T06:30:11.212Z,59.80
2019-04-20T06:33:35.572Z,60.30
2019-04-20T06:36:07.858Z,59.20
2019-04-20T06:38:36.494Z,58.20
2019-04-20T06:41:00.788Z,58.40
2019-04-20T06:43:25.461Z,57.90
2019-04-20T06:46:01.504Z,57.40
2019-04-20T06:48:30.530Z,57.90
2019-04-20T06:50:49.508Z,57.60
2019-04-20T06:53:36.640Z,57.60
2019-04-20T06:56:09.999Z,57.60
2019-04-20T06:58:46.476Z,56.70
2019-04-20T07:01:10.599Z,56.30
2019-04-20T07:03:56.800Z,56.60
2019-04-20T07:06:20.945Z,55.90
2019-04-20T07:08:53.194Z,55.90
2019-04-20T07:11:10.963Z,55.30
2019-04-20T07:13:30.957Z,54.90
2019-04-20T07:16:18.111Z,54.90
2019-04-20T07:19:06.200Z,54.40
2019-04-20T07:24:40.284Z,53.50
2019-04-20T07:27:10.346Z,52.90
2019-04-20T07:29:41.135Z,52.80
2019-04-20T07:32:04.018Z,52.60
2019-04-20T07:34:43.710Z,52.60
2019-04-20T07:37:43.211Z,52.40
2019-04-20T07:39:40.506Z,52.20
2019-04-20T07:42:17.910Z,51.30
2019-04-20T07:44:42.794Z,51.40
2019-04-20T07:47:14.126Z,52.10
2019-04-20T07:49:41.636Z,51.50
2019-04-20T07:51:51.098Z,52.00
2019-04-20T07:54:50.716Z,51.30
2019-04-20T07:57:10.234Z,51.20
2019-04-20T07:59:32.537Z,50.30
2019-04-20T08:02:32.119Z,50.70
2019-04-20T08:05:01.690Z,50.20
2019-04-20T08:07:17.524Z,50.30
2019-04-20T08:09:56.649Z,50.40
2019-04-20T08:12:55.659Z,50.30
2019-04-20T08:15:38.031Z,50.40
2019-04-20T08:17:56.552Z,51.40
2019-04-20T08:20:17.127Z,49.90
2019-04-20T08:22:53.152Z,49.70
2019-04-20T08:25:14.224Z,49.60
2019-04-20T08:27:48.696Z,48.00
2019-04-20T08:30:38.917Z,48.30
2019-04-20T08:33:14.396Z,48.30
2019-04-20T08:35:53.968Z,46.30
2019-04-20T08:38:49.895Z,46.40
2019-04-20T08:40:50.280Z,46.30
2019-04-20T08:43:30.062Z,47.40
2019-04-20T08:45:48.749Z,47.30
2019-04-20T08:48:27.568Z,47.00
2019-04-20T08:50:50.787Z,47.50
2019-04-20T08:55:45.047Z,49.10
2019-04-20T08:58:00.632Z,47.20
2019-04-20T09:00:35.955Z,47.50
2019-04-20T09:03:09.379Z,47.60
2019-04-20T09:05:42.467Z,46.00
2019-04-20T09:08:09.258Z,45.70
2019-04-20T09:10:48.175Z,46.70
2019-04-20T09:13:11.582Z,45.30
2019-04-20T09:15:32.095Z,45.30
2019-04-20T09:18:09.083Z,47.80
2019-04-20T09:20:43.533Z,46.20
2019-04-20T09:23:21.492Z,45.40
2019-04-20T09:26:02.297Z,45.00
2019-04-20T09:28:18.916Z,45.40
2019-04-20T09:31:02.611Z,44.70
2019-04-20T09:33:48.704Z,44.90
2019-04-20T09:36:14.322Z,47.40
2019-04-20T09:39:00.135Z,43.80
2019-04-20T09:41:47.073Z,44.30
2019-04-20T09:43:54.090Z,43.30
2019-04-20T09:46:24.185Z,42.40
2019-04-20T09:48:58.889Z,42.10
2019-04-20T09:51:42.376Z,42.00
2019-04-20T09:54:04.273Z,42.30
2019-04-20T09:56:36.990Z,42.50
2019-04-20T09:59:12.253Z,41.20
2019-04-20T10:01:33.959Z,40.90
2019-04-20T10:03:54.776Z,43.50
2019-04-20T10:06:27.296Z,40.90
2019-04-20T10:08:56.818Z,40.70
2019-04-20T10:11:23.882Z,40.40
2019-04-20T10:13:52.356Z,41.00
2019-04-20T10:16:21.866Z,39.60
2019-04-20T10:18:53.494Z,39.70
2019-04-20T10:21:20.662Z,39.60
2019-04-20T10:23:50.295Z,39.60
2019-04-20T10:26:18.996Z,38.10
2019-04-20T10:28:47.742Z,37.90
2019-04-20T10:31:16.767Z,38.60
2019-04-20T10:33:45.970Z,39.00
2019-04-20T10:36:19.516Z,39.00
2019-04-20T10:38:48.535Z,36.30
2019-04-20T10:41:29.609Z,30.90
2019-04-20T10:43:47.421Z,28.20
2019-04-20T10:46:17.058Z,26.50
2019-04-20T10:48:50.816Z,24.70
2019-04-20T10:51:17.638Z,24.10
2019-04-20T10:53:52.181Z,22.80
2019-04-20T10:56:21.366Z,22.30
2019-04-20T10:58:49.948Z,21.80
2019-04-20T11:01:19.845Z,20.50
2019-04-20T11:03:48.419Z,19.70
2019-04-20T11:06:16.896Z,20.80
2019-04-20T11:08:46.577Z,21.20
2019-04-20T11:11:23.139Z,20.10
2019-04-20T11:13:45.654Z,19.20
2019-04-20T11:16:14.776Z,19.30
2019-04-20T11:18:43.610Z,19.90
2019-04-20T11:21:13.347Z,19.50
2019-04-20T11:23:42.508Z,20.40
2019-04-20T11:26:11.477Z,19.30
2019-04-20T11:28:40.030Z,18.50
2019-04-20T11:31:12.447Z,18.90
2019-04-20T11:33:42.435Z,18.90
2019-04-20T11:36:11.098Z,18.80
2019-04-20T11:38:40.809Z,19.60
2019-04-20T11:41:16.546Z,18.70
2019-04-20T11:43:39.875Z,19.00
2019-04-20T11:46:08.972Z,19.40
2019-04-20T11:48:37.768Z,19.00
2019-04-20T11:51:07.438Z,19.10
2019-04-20T11:53:36.449Z,18.80
2019-04-20T11:56:07.603Z,18.60
2019-04-20T11:58:36.148Z,18.50
2019-04-20T12:01:27.179Z,18.00
2019-04-20T12:04:01.715Z,19.10
2019-04-20T12:06:23.343Z,18.80
2019-04-20T12:08:52.597Z,18.20
2019-04-20T12:11:33.041Z,17.80
2019-04-20T12:13:52.255Z,18.00
2019-04-20T12:16:21.524Z,18.10
2019-04-20T12:18:50.474Z,17.70
2019-04-20T12:21:19.184Z,17.50
2019-04-20T12:23:48.683Z,16.70
2019-04-20T12:26:18.495Z,17.10
2019-04-20T12:28:47.572Z,16.20
2019-04-20T12:31:20.464Z,16.40
2019-04-20T12:33:46.543Z,16.30
2019-04-20T12:36:16.361Z,16.70
2019-04-20T12:38:46.153Z,16.20
2019-04-20T12:41:16.129Z,16.90
2019-04-20T12:43:45.679Z,16.00
2019-04-20T12:46:17.053Z,16.40
2019-04-20T12:48:44.513Z,17.00
2019-04-20T12:51:19.674Z,16.00
2019-04-20T12:53:48.754Z,15.40
2019-04-20T12:56:17.338Z,15.80
2019-04-20T12:58:45.797Z,15.80
2019-04-20T13:01:14.642Z,15.60
2019-04-20T13:03:45.626Z,15.80
2019-04-20T13:06:16.185Z,16.40
2019-04-20T13:08:51.786Z,15.60
2019-04-20T13:11:24.695Z,16.40
2019-04-20T13:14:24.747Z,16.80
2019-04-20T13:16:53.990Z,16.30
2019-04-20T13:19:23.678Z,16.70
2019-04-20T13:21:52.788Z,16.90
2019-04-20T13:24:21.339Z,16.60
2019-04-20T13:26:50.931Z,17.60
2019-04-20T13:29:19.663Z,17.90
2019-04-20T13:31:50.174Z,16.80
2019-04-20T13:34:18.363Z,16.00
2019-04-20T13:36:46.823Z,15.60
2019-04-20T13:39:16.445Z,16.30
2019-04-20T13:41:57.571Z,15.20
2019-04-20T13:44:15.779Z,15.40
2019-04-20T13:46:45.050Z,15.30
2019-04-20T13:49:15.333Z,15.20
2019-04-20T13:51:44.594Z,15.30
2019-04-20T13:54:18.023Z,14.70
2019-04-20T13:56:44.204Z,14.70
2019-04-20T13:59:26.083Z,14.90
2019-04-20T14:01:57.038Z,14.80
2019-04-20T14:04:30.690Z,14.90
2019-04-20T14:07:01.714Z,14.90
2019-04-20T14:09:30.455Z,15.20
2019-04-20T14:12:11.858Z,15.20
2019-04-20T14:14:29.723Z,15.40
2019-04-20T14:16:59.368Z,16.10
2019-04-20T14:19:29.216Z,16.50
2019-04-20T14:21:57.856Z,15.70
2019-04-20T14:24:26.811Z,15.60
2019-04-20T14:26:55.308Z,15.00
2019-04-20T14:29:25.093Z,15.60
2019-04-20T14:31:53.808Z,15.40
2019-04-20T14:34:22.719Z,15.20
2019-04-20T14:36:52.858Z,15.50
2019-04-20T14:39:24.449Z,15.10
2019-04-20T14:41:56.191Z,14.90
2019-04-20T14:44:25.686Z,14.50
2019-04-20T14:46:55.647Z,15.00
2019-04-20T14:49:24.962Z,14.90
2019-04-20T14:51:55.827Z,15.60
2019-04-20T14:54:23.767Z,14.90
2019-04-20T14:56:53.599Z,14.90
2019-04-20T14:59:25.236Z,15.40
2019-04-20T15:02:00.956Z,15.20
2019-04-20T15:04:33.181Z,15.20
2019-04-20T15:07:04.660Z,15.30
2019-04-20T15:09:36.730Z,14.40
2019-04-20T15:12:04.677Z,14.50
2019-04-20T15:14:34.510Z,14.50
2019-04-20T15:17:04.646Z,14.20
2019-04-20T15:19:36.131Z,14.50
2019-04-20T15:22:05.578Z,14.20
2019-04-20T15:24:35.536Z,15.10
2019-04-20T15:27:06.946Z,15.20
2019-04-20T15:29:36.006Z,15.60
2019-04-20T15:32:05.957Z,15.20
2019-04-20T15:34:35.069Z,15.10
2019-04-20T15:37:05.352Z,14.90
2019-04-20T15:39:34.892Z,14.60
2019-04-20T15:42:03.615Z,15.40
2019-04-20T15:44:33.444Z,14.80
2019-04-20T15:47:03.533Z,14.50
2019-04-20T15:49:33.669Z,14.00
2019-04-20T15:52:03.809Z,14.00
2019-04-20T15:54:33.713Z,15.20
2019-04-20T15:57:09.793Z,14.40
2019-04-20T15:59:32.802Z,15.10
2019-04-20T16:02:03.184Z,14.80
2019-04-20T16:04:52.541Z,14.70
2019-04-20T16:07:21.513Z,14.50
2019-04-20T16:09:51.780Z,15.00
2019-04-20T16:12:22.732Z,14.40
2019-04-20T16:14:51.445Z,14.70
2019-04-20T16:17:25.223Z,15.20
2019-04-20T16:19:57.039Z,14.90
2019-04-20T16:22:24.244Z,14.40
2019-04-20T16:25:11.732Z,15.30
2019-04-20T16:27:41.554Z,15.30
2019-04-20T16:30:11.579Z,15.20
2019-04-20T16:32:40.703Z,16.60
2019-04-20T16:35:10.914Z,15.60
2019-04-20T16:37:42.366Z,16.40
2019-04-20T16:40:11.345Z,17.00
2019-04-20T16:42:42.105Z,16.30
2019-04-20T16:45:11.590Z,16.10
2019-04-20T16:47:40.189Z,15.20
2019-04-20T16:50:11.009Z,17.20
2019-04-20T16:52:40.967Z,17.30
2019-04-20T16:55:11.307Z,17.90
2019-04-20T16:57:40.085Z,18.30
2019-04-20T17:00:09.553Z,18.40
2019-04-20T17:02:38.264Z,18.50
2019-04-20T17:05:07.322Z,18.20
2019-04-20T17:07:40.152Z,19.40
2019-04-20T17:10:11.848Z,19.80
2019-04-20T17:12:41.924Z,19.90
2019-04-20T17:15:13.617Z,20.10
2019-04-20T17:17:43.359Z,20.20
2019-04-20T17:20:15.511Z,19.80
2019-04-20T17:22:44.428Z,20.70
2019-04-20T17:25:16.166Z,20.80
2019-04-20T17:27:57.199Z,20.50
2019-04-20T17:30:47.307Z,19.60
2019-04-20T17:33:25.775Z,20.50
2019-04-20T17:36:04.495Z,19.90
2019-04-20T17:38:24.745Z,20.20
2019-04-20T17:41:11.772Z,20.90
2019-04-20T17:43:33.154Z,20.50
2019-04-20T17:46:06.915Z,20.20
2019-04-20T17:48:39.974Z,20.80
2019-04-20T17:51:20.459Z,20.40
2019-04-20T17:53:54.555Z,20.20
2019-04-20T17:56:18.592Z,20.80
2019-04-20T17:58:48.036Z,21.10
2019-04-20T18:01:26.623Z,21.20
2019-04-20T18:04:20.041Z,21.50
2019-04-20T18:06:39.492Z,21.90
2019-04-20T18:09:03.142Z,22.10
2019-04-20T18:11:23.514Z,22.50
2019-04-20T18:13:58.892Z,22.80
2019-04-20T18:16:46.560Z,23.40
2019-04-20T18:19:21.712Z,23.80
2019-04-20T18:21:47.817Z,23.60
2019-04-20T18:24:38.734Z,24.10
2019-04-20T18:27:03.014Z,24.00
2019-04-20T18:29:38.404Z,23.90
2019-04-20T18:32:01.765Z,24.30
2019-04-20T18:34:52.967Z,24.80
2019-04-20T18:37:21.235Z,24.70
2019-04-20T18:39:55.831Z,25.00
2019-04-20T18:42:24.941Z,25.10
2019-04-20T18:45:10.703Z,25.10
2019-04-20T18:47:44.274Z,25.20
2019-04-20T18:49:57.140Z,26.00
2019-04-20T18:52:19.776Z,25.00
2019-04-20T18:54:51.487Z,24.70
2019-04-20T18:57:23.226Z,24.40
2019-04-20T18:59:52.950Z,25.00
2019-04-20T19:02:26.512Z,25.10
2019-04-20T19:04:50.096Z,25.20
2019-04-20T19:07:19.747Z,25.60
2019-04-20T19:09:48.580Z,25.80
2019-04-20T19:12:17.288Z,26.10
2019-04-20T19:14:49.558Z,26.20
2019-04-20T19:17:49.794Z,26.70
2019-04-20T19:20:27.006Z,26.40
2019-04-20T19:22:54.041Z,26.90
2019-04-20T19:25:27.025Z,27.20
2019-04-20T19:27:56.581Z,26.80
2019-04-20T19:30:36.481Z,26.90
2019-04-20T19:33:17.582Z,27.00
2019-04-20T19:35:39.972Z,27.70
2019-04-20T19:38:06.569Z,27.90
2019-04-20T19:40:42.937Z,28.30
2019-04-20T19:43:14.765Z,28.60
2019-04-20T19:45:56.685Z,29.60
2019-04-20T19:48:21.344Z,30.30
2019-04-20T19:50:58.937Z,30.80
2019-04-20T19:53:26.341Z,31.90
2019-04-20T19:55:47.736Z,32.30
2019-04-20T19:58:18.854Z,33.30
2019-04-20T20:00:51.356Z,33.30
2019-04-20T20:03:17.879Z,33.70
2019-04-20T20:05:53.839Z,33.80
2019-04-20T20:08:23.847Z,34.00
2019-04-20T20:10:50.636Z,34.50
2019-04-20T20:13:20.435Z,34.60
2019-04-20T20:15:57.509Z,34.60
2019-04-20T20:18:35.615Z,34.60
2019-04-20T20:21:04.509Z,34.50
2019-04-20T20:23:20.322Z,34.40
2019-04-20T20:25:50.120Z,34.90
2019-04-20T20:28:31.021Z,35.60
2019-04-20T20:31:03.461Z,36.10
2019-04-20T20:33:36.516Z,36.20
2019-04-20T20:36:05.551Z,36.50
2019-04-20T20:38:35.246Z,36.50
2019-04-20T20:41:05.649Z,36.20
2019-04-20T20:43:40.964Z,36.40
2019-04-20T20:46:17.234Z,36.40
2019-04-20T20:48:57.503Z,36.90
2019-04-20T20:51:27.907Z,36.80
2019-04-20T20:53:51.006Z,36.90
2019-04-20T20:56:15.495Z,37.00
2019-04-20T20:58:48.626Z,37.20
2019-04-20T21:01:14.126Z,37.30
2019-04-20T21:03:46.077Z,37.60
2019-04-20T21:06:15.625Z,38.10
2019-04-20T21:08:51.472Z,38.70
2019-04-20T21:11:21.996Z,39.00
2019-04-20T21:13:49.232Z,39.00
2019-04-20T21:16:23.872Z,38.70
2019-04-20T21:19:07.023Z,39.00
2019-04-20T21:21:36.074Z,39.10
2019-04-20T21:23:56.718Z,39.20
2019-04-20T21:26:27.065Z,39.40
2019-04-20T21:28:50.173Z,39.60
2019-04-20T21:31:24.334Z,39.90
2019-04-20T21:33:51.063Z,39.50
2019-04-20T21:36:24.593Z,40.30
2019-04-20T21:38:50.112Z,40.10
2019-04-20T21:41:21.736Z,40.30
2019-04-20T21:43:49.861Z,39.60
2019-04-20T21:46:18.808Z,39.90
2019-04-20T21:49:00.701Z,40.10
2019-04-20T21:51:30.349Z,40.30
2019-04-20T21:53:48.339Z,40.80
2019-04-20T21:56:17.733Z,41.00
2019-04-20T21:58:55.341Z,41.10
2019-04-20T22:01:28.388Z,41.40
2019-04-20T22:03:52.392Z,41.40
2019-04-20T22:06:22.351Z,42.30
2019-04-20T22:08:56.752Z,42.70
2019-04-20T22:11:21.947Z,42.80
2019-04-20T22:13:51.709Z,43.50
2019-04-20T22:16:23.815Z,43.40
2019-04-20T22:18:59.163Z,43.70
2019-04-20T22:21:26.519Z,44.40
2019-04-20T22:24:05.371Z,45.00
2019-04-20T22:26:32.146Z,45.50
2019-04-20T22:28:52.163Z,43.80
2019-04-20T22:31:22.135Z,42.50
2019-04-20T22:33:52.242Z,42.20
2019-04-20T22:36:27.423Z,42.60
2019-04-20T22:39:09.800Z,42.40
2019-04-20T22:41:48.204Z,42.00
2019-04-20T22:44:15.208Z,41.30
2019-04-20T22:46:43.755Z,42.00
2019-04-20T22:49:26.645Z,43.20
2019-04-20T22:51:52.006Z,44.80
2019-04-20T22:54:31.231Z,45.70
2019-04-20T22:56:55.137Z,46.50
2019-04-20T22:59:18.485Z,45.70
2019-04-20T23:01:49.871Z,45.60
2019-04-20T23:04:14.874Z,46.10
2019-04-20T23:06:48.138Z,46.30
2019-04-20T23:09:14.928Z,46.40
2019-04-20T23:11:45.064Z,46.60
2019-04-20T23:14:14.296Z,46.60
2019-04-20T23:16:48.649Z,46.90
2019-04-20T23:19:14.196Z,47.10
2019-04-20T23:21:48.542Z,47.60
2019-04-20T23:24:14.890Z,47.40
2019-04-20T23:26:45.629Z,48.30
2019-04-20T23:29:13.515Z,48.30
2019-04-20T23:31:50.560Z,48.10
2019-04-20T23:34:16.573Z,48.80
2019-04-20T23:36:45.764Z,48.70
2019-04-20T23:39:13.034Z,48.60
2019-04-20T23:41:49.969Z,49.20
2019-04-20T23:44:19.262Z,48.90
2019-04-20T23:46:59.235Z,49.50
2019-04-20T23:49:29.890Z,50.50
2019-04-20T23:52:24.800Z,50.40
2019-04-20T23:54:27.926Z,50.50
2019-04-20T23:56:55.645Z,51.10
2019-04-20T23:59:29.021Z,52.10
